createdAt,value
2023-02-14T00:14:45.145Z,1.35
2023-02-14T00:17:11.738Z,1.40
2023-02-14T00:19:38.340Z,1.32
2023-02-14T00:22:05.392Z,1.26
2023-02-14T00:24:32.408Z,1.25
2023-02-14T00:26:59.203Z,1.20
2023-02-14T00:29:29.627Z,1.28
2023-02-14T00:31:56.488Z,1.25
2023-02-14T00:34:23.272Z,1.17
2023-02-14T00:36:50.672Z,1.21
2023-02-14T00:39:18.034Z,1.17
2023-02-14T00:41:44.889Z,1.16
2023-02-14T00:44:13.017Z,1.21
2023-02-14T00:46:40.045Z,1.01
2023-02-14T00:49:06.879Z,0.97
2023-02-14T00:51:33.470Z,0.85
2023-02-14T00:54:00.003Z,0.81
2023-02-14T00:56:26.633Z,0.84
2023-02-14T00:58:53.213Z,0.87
2023-02-14T01:01:20.092Z,0.94
2023-02-14T01:03:47.556Z,1.01
2023-02-14T01:06:14.453Z,1.00
2023-02-14T01:08:41.022Z,1.04
2023-02-14T01:11:08.628Z,0.90
2023-02-14T01:13:35.245Z,0.89
2023-02-14T01:16:06.939Z,0.81
2023-02-14T01:21:14.524Z,0.80
2023-02-14T01:23:42.162Z,0.76
2023-02-14T01:26:09.971Z,0.94
2023-02-14T01:28:37.039Z,0.84
2023-02-14T01:31:24.801Z,0.87
2023-02-14T01:33:52.845Z,0.97
2023-02-14T01:36:24.945Z,0.82
2023-02-14T01:38:54.458Z,0.81
2023-02-14T01:41:21.976Z,0.83
2023-02-14T01:43:50.150Z,0.79
2023-02-14T01:46:16.794Z,0.67
2023-02-14T01:48:43.483Z,0.62
2023-02-14T01:51:10.238Z,0.78
2023-02-14T01:53:37.184Z,0.71
2023-02-14T01:56:10.078Z,0.76
2023-02-14T01:58:39.698Z,0.71
2023-02-14T02:01:06.909Z,0.69
2023-02-14T02:03:42.558Z,0.49
2023-02-14T02:06:13.750Z,0.53
2023-02-14T02:08:49.251Z,0.63
2023-02-14T02:11:15.845Z,0.71
2023-02-14T02:13:42.358Z,0.62
2023-02-14T02:16:40.085Z,0.53
2023-02-14T02:19:21.574Z,0.52
2023-02-14T02:22:09.407Z,0.53
2023-02-14T02:24:46.610Z,0.59
2023-02-14T02:27:48.430Z,0.64
2023-02-14T02:30:37.636Z,0.64
2023-02-14T02:33:38.849Z,0.66
2023-02-14T02:36:13.933Z,0.49
2023-02-14T02:38:59.214Z,0.47
2023-02-14T02:41:44.016Z,0.63
2023-02-14T02:44:31.871Z,0.60
2023-02-14T02:47:22.508Z,0.56
2023-02-14T02:50:17.358Z,0.68
2023-02-14T02:53:06.533Z,0.59
2023-02-14T02:55:59.444Z,0.55
2023-02-14T02:58:33.179Z,0.56
2023-02-14T03:01:03.596Z,0.43
2023-02-14T03:03:51.882Z,0.42
2023-02-14T03:06:18.498Z,0.43
2023-02-14T03:08:45.062Z,0.40
2023-02-14T03:11:13.527Z,0.28
2023-02-14T03:13:43.794Z,0.22
2023-02-14T03:20:05.269Z,0.01
2023-02-14T03:22:38.618Z,0.14
2023-02-14T03:25:11.298Z,0.21
2023-02-14T03:27:44.970Z,0.26
2023-02-14T03:30:28.434Z,0.27
2023-02-14T03:33:03.082Z,0.25
2023-02-14T03:35:40.484Z,0.36
2023-02-14T03:38:16.259Z,0.37
2023-02-14T03:40:49.593Z,0.29
2023-02-14T03:43:32.501Z,0.36
2023-02-14T03:46:12.365Z,0.34
2023-02-14T03:48:40.901Z,0.24
2023-02-14T03:51:10.890Z,0.25
2023-02-14T03:53:43.804Z,0.36
2023-02-14T03:56:58.102Z,0.36
2023-02-14T03:59:28.638Z,0.31
2023-02-14T04:02:17.216Z,0.28
2023-02-14T04:04:46.690Z,0.36
2023-02-14T04:07:15.869Z,0.24
2023-02-14T04:09:42.961Z,0.22
2023-02-14T04:12:09.833Z,0.25
2023-02-14T04:14:36.653Z,0.20
2023-02-14T04:17:21.995Z,0.19
2023-02-14T04:19:48.557Z,0.27
2023-02-14T04:22:15.512Z,0.31
2023-02-14T04:24:42.033Z,0.32
2023-02-14T04:27:11.631Z,0.29
2023-02-14T04:29:48.050Z,0.26
2023-02-14T04:32:20.818Z,0.28
2023-02-14T04:34:48.262Z,0.23
2023-02-14T04:37:17.138Z,0.43
2023-02-14T04:39:43.832Z,0.37
2023-02-14T04:42:10.336Z,0.31
2023-02-14T04:44:38.430Z,0.26
2023-02-14T04:47:05.584Z,0.10
2023-02-14T04:49:32.145Z,0.18
2023-02-14T04:51:59.064Z,0.09
2023-02-14T04:54:25.881Z,0.08
2023-02-14T04:56:52.460Z,-0.10
2023-02-14T04:59:19.037Z,-0.03
2023-02-14T05:01:45.711Z,0.07
2023-02-14T05:04:12.380Z,0.05
2023-02-14T05:06:38.901Z,0.12
2023-02-14T05:09:05.436Z,0.07
2023-02-14T05:11:32.034Z,0.02
2023-02-14T05:13:58.544Z,-0.10
2023-02-14T05:16:25.482Z,-0.09
2023-02-14T05:18:52.130Z,-0.02
2023-02-14T05:21:18.770Z,-0.05
2023-02-14T05:23:45.412Z,-0.04
2023-02-14T05:26:11.985Z,-0.04
2023-02-14T05:28:41.214Z,0.01
2023-02-14T05:31:08.640Z,0.08
2023-02-14T05:33:35.557Z,0.04
2023-02-14T05:36:02.870Z,-0.01
2023-02-14T05:41:08.921Z,0.04
2023-02-14T05:43:35.480Z,0.14
2023-02-14T05:46:02.178Z,0.11
2023-02-14T05:48:28.810Z,0.17
2023-02-14T05:50:55.415Z,0.13
2023-02-14T05:53:21.977Z,0.09
2023-02-14T05:55:48.505Z,0.13
2023-02-14T05:58:15.296Z,0.21
2023-02-14T06:00:41.859Z,0.13
2023-02-14T06:03:08.883Z,0.09
2023-02-14T06:08:13.389Z,0.11
2023-02-14T06:10:39.894Z,0.04
2023-02-14T06:13:09.107Z,0.04
2023-02-14T06:15:36.858Z,-0.10
2023-02-14T06:18:04.968Z,-0.18
2023-02-14T06:20:31.589Z,-0.36
2023-02-14T06:22:58.213Z,-0.24
2023-02-14T06:25:25.087Z,-0.11
2023-02-14T06:27:51.838Z,-0.07
2023-02-14T06:30:18.767Z,-0.08
2023-02-14T06:32:45.444Z,0.03
2023-02-14T06:35:11.971Z,0.02
2023-02-14T06:37:38.929Z,-0.03
2023-02-14T06:40:06.176Z,-0.25
2023-02-14T06:42:32.788Z,-0.25
2023-02-14T06:44:59.309Z,-0.28
2023-02-14T06:47:25.870Z,-0.47
2023-02-14T06:49:52.492Z,-0.55
2023-02-14T06:54:56.938Z,-0.46
2023-02-14T06:57:23.466Z,-0.43
2023-02-14T06:59:49.999Z,-0.49
2023-02-14T07:02:16.573Z,-0.46
2023-02-14T07:04:43.131Z,-0.30
2023-02-14T07:07:09.702Z,-0.43
2023-02-14T07:09:36.414Z,-0.52
2023-02-14T07:12:03.019Z,-0.23
2023-02-14T07:14:29.644Z,-0.24
2023-02-14T07:16:56.300Z,-0.33
2023-02-14T07:19:22.881Z,-0.15
2023-02-14T07:24:20.704Z,0.24
2023-02-14T07:26:47.252Z,0.22
2023-02-14T07:29:13.759Z,0.25
2023-02-14T07:31:40.430Z,0.37
2023-02-14T07:34:07.100Z,0.36
2023-02-14T07:36:34.254Z,0.33
2023-02-14T07:39:00.770Z,0.23
2023-02-14T07:41:27.417Z,0.43
2023-02-14T07:43:53.924Z,0.42
2023-02-14T07:46:20.577Z,0.60
2023-02-14T07:48:48.348Z,0.50
2023-02-14T07:51:14.919Z,0.41
2023-02-14T07:53:41.509Z,0.64
2023-02-14T07:58:40.733Z,0.88
2023-02-14T08:01:07.330Z,0.79
2023-02-14T08:03:33.872Z,0.92
2023-02-14T08:06:00.406Z,1.08
2023-02-14T08:08:28.703Z,1.20
2023-02-14T08:10:55.368Z,1.29
2023-02-14T08:13:22.055Z,1.39
2023-02-14T08:16:07.477Z,1.29
2023-02-14T08:18:39.897Z,1.45
2023-02-14T08:23:41.293Z,1.89
2023-02-14T08:26:07.885Z,1.82
2023-02-14T08:28:35.417Z,2.00
2023-02-14T08:31:04.399Z,2.19
2023-02-14T08:33:31.183Z,2.36
2023-02-14T08:35:57.760Z,2.38
2023-02-14T08:38:24.521Z,2.53
2023-02-14T08:40:51.102Z,2.74
2023-02-14T08:43:17.641Z,3.08
2023-02-14T08:45:44.477Z,3.14
2023-02-14T08:48:12.853Z,3.35
2023-02-14T08:50:40.366Z,3.49
2023-02-14T08:53:09.713Z,3.76
2023-02-14T08:55:37.125Z,3.97
2023-02-14T08:58:04.297Z,4.09
2023-02-14T09:00:31.910Z,4.27
2023-02-14T09:02:58.918Z,4.31
2023-02-14T09:05:26.592Z,4.51
2023-02-14T09:07:56.016Z,4.66
2023-02-14T09:10:23.701Z,4.74
2023-02-14T09:12:50.429Z,4.93
2023-02-14T09:15:17.156Z,5.07
2023-02-14T09:17:43.995Z,5.37
2023-02-14T09:20:13.859Z,5.50
2023-02-14T09:22:40.484Z,5.69
2023-02-14T09:25:07.320Z,5.82
2023-02-14T09:27:33.874Z,6.01
2023-02-14T09:30:00.524Z,6.25
2023-02-14T09:32:27.405Z,6.38
2023-02-14T09:34:54.009Z,6.71
2023-02-14T09:40:15.808Z,6.67
2023-02-14T09:43:03.745Z,6.75
2023-02-14T09:45:33.480Z,6.97
2023-02-14T09:48:05.845Z,6.99
2023-02-14T09:53:40.716Z,7.16
2023-02-14T09:56:10.426Z,6.97
2023-02-14T09:58:40.242Z,6.71
2023-02-14T10:01:22.257Z,6.94
2023-02-14T10:04:25.688Z,7.66
2023-02-14T10:07:09.406Z,7.90
2023-02-14T10:09:52.321Z,7.93
2023-02-14T10:12:34.165Z,8.07
2023-02-14T10:15:08.061Z,7.60
2023-02-14T10:17:44.929Z,6.93
2023-02-14T10:22:57.882Z,7.16
2023-02-14T10:25:29.288Z,6.94
2023-02-14T10:27:58.880Z,6.70
2023-02-14T10:30:26.129Z,6.49
2023-02-14T10:36:09.144Z,6.70
2023-02-14T10:38:57.758Z,6.85
2023-02-14T10:41:38.013Z,7.06
2023-02-14T10:44:30.745Z,7.06
2023-02-14T10:47:13.292Z,7.17
2023-02-14T10:49:59.345Z,7.37
2023-02-14T10:52:29.335Z,7.52
2023-02-14T10:55:00.165Z,7.51
2023-02-14T10:57:34.873Z,7.34
2023-02-14T11:00:03.269Z,7.27
2023-02-14T11:02:40.431Z,7.41
2023-02-14T11:05:08.871Z,7.50
2023-02-14T11:07:35.380Z,7.79
2023-02-14T11:12:39.933Z,8.30
2023-02-14T11:15:15.491Z,8.70
2023-02-14T11:17:42.881Z,8.94
2023-02-14T11:20:18.684Z,9.25
2023-02-14T11:22:45.617Z,9.61
2023-02-14T11:25:21.447Z,9.77
2023-02-14T11:27:51.957Z,9.67
2023-02-14T11:30:30.654Z,9.83
2023-02-14T11:35:34.682Z,10.13
2023-02-14T11:38:04.420Z,10.19
2023-02-14T11:40:37.834Z,10.39
2023-02-14T11:43:16.083Z,10.69
2023-02-14T11:48:37.123Z,11.03
2023-02-14T11:51:10.904Z,11.12
2023-02-14T11:53:46.508Z,11.14
2023-02-14T11:56:14.364Z,11.52
2023-02-14T11:58:55.614Z,11.68
2023-02-14T12:01:32.198Z,11.46
2023-02-14T12:04:05.223Z,11.57
2023-02-14T12:06:35.307Z,11.64
2023-02-14T12:09:11.976Z,11.99
2023-02-14T12:11:39.258Z,11.81
2023-02-14T12:14:05.940Z,12.17
2023-02-14T12:16:48.931Z,11.87
2023-02-14T12:19:26.941Z,11.73
2023-02-14T12:21:59.813Z,11.72
2023-02-14T12:24:38.458Z,12.04
2023-02-14T12:29:59.961Z,12.37
2023-02-14T12:32:29.484Z,12.23
2023-02-14T12:35:16.320Z,12.22
2023-02-14T12:38:23.938Z,12.17
2023-02-14T12:41:10.979Z,12.79
2023-02-14T12:43:53.488Z,12.49
2023-02-14T12:46:58.979Z,12.17
2023-02-14T12:49:54.808Z,12.37
2023-02-14T12:52:32.063Z,12.51
2023-02-14T12:55:27.324Z,12.63
2023-02-14T12:58:15.435Z,12.43
2023-02-14T13:00:53.436Z,12.57
2023-02-14T13:03:25.940Z,12.66
2023-02-14T13:06:15.032Z,13.00
2023-02-14T13:09:02.092Z,13.07
2023-02-14T13:12:05.773Z,12.94
2023-02-14T13:14:58.212Z,12.78
2023-02-14T13:17:49.199Z,13.17
2023-02-14T13:20:37.004Z,13.33
2023-02-14T13:23:12.613Z,13.55
2023-02-14T13:25:50.042Z,13.47
2023-02-14T13:28:18.643Z,13.44
2023-02-14T13:30:45.586Z,13.68
2023-02-14T13:33:25.014Z,13.15
2023-02-14T13:35:55.513Z,13.12
2023-02-14T13:38:24.010Z,12.98
2023-02-14T13:40:52.269Z,12.89
2023-02-14T13:43:45.179Z,12.45
2023-02-14T13:48:56.496Z,12.28
2023-02-14T13:51:47.354Z,12.04
2023-02-14T13:54:37.713Z,12.01
2023-02-14T13:57:31.678Z,11.95
2023-02-14T14:00:16.454Z,11.65
2023-02-14T14:02:54.071Z,11.48
2023-02-14T14:05:29.711Z,11.55
2023-02-14T14:08:20.832Z,11.46
2023-02-14T14:10:56.253Z,11.47
2023-02-14T14:13:40.926Z,12.09
2023-02-14T14:16:28.679Z,12.23
2023-02-14T14:19:04.786Z,11.82
2023-02-14T14:21:34.463Z,11.66
2023-02-14T14:24:24.049Z,11.53
2023-02-14T14:27:15.352Z,11.29
2023-02-14T14:29:48.376Z,11.19
2023-02-14T14:35:01.200Z,11.09
2023-02-14T14:37:31.050Z,11.10
2023-02-14T14:40:00.250Z,11.02
2023-02-14T14:42:30.950Z,10.90
2023-02-14T14:45:01.828Z,10.90
2023-02-14T14:47:34.881Z,10.92
2023-02-14T14:50:07.610Z,10.82
2023-02-14T14:52:38.404Z,10.64
2023-02-14T14:55:07.715Z,10.75
2023-02-14T14:57:36.726Z,10.58
2023-02-14T15:00:24.227Z,10.50
2023-02-14T15:03:14.870Z,10.51
2023-02-14T15:05:50.312Z,10.31
2023-02-14T15:08:31.513Z,10.36
2023-02-14T15:11:34.646Z,10.20
2023-02-14T15:14:03.346Z,10.21
2023-02-14T15:19:16.265Z,10.15
2023-02-14T15:21:44.693Z,10.16
2023-02-14T15:24:14.769Z,9.94
2023-02-14T15:26:45.007Z,9.92
2023-02-14T15:29:26.983Z,9.87
2023-02-14T15:31:54.703Z,9.86
2023-02-14T15:34:25.710Z,9.83
2023-02-14T15:36:57.681Z,9.77
2023-02-14T15:39:30.222Z,9.63
2023-02-14T15:41:56.786Z,9.58
2023-02-14T15:47:02.163Z,9.40
2023-02-14T15:49:37.923Z,9.15
2023-02-14T15:52:05.777Z,9.10
2023-02-14T15:54:41.473Z,8.95
2023-02-14T15:57:20.922Z,8.79
2023-02-14T15:59:48.704Z,8.76
2023-02-14T16:02:37.794Z,8.78
2023-02-14T16:05:22.242Z,8.53
2023-02-14T16:08:22.973Z,8.44
2023-02-14T16:11:15.915Z,8.33
2023-02-14T16:13:45.004Z,8.28
2023-02-14T16:18:50.497Z,8.04
2023-02-14T16:21:33.398Z,7.93
2023-02-14T16:24:11.986Z,7.83
2023-02-14T16:26:41.190Z,7.77
2023-02-14T16:29:10.746Z,7.64
2023-02-14T16:32:06.191Z,8.14
2023-02-14T16:34:32.867Z,10.06
2023-02-14T16:37:07.865Z,10.12
2023-02-14T16:39:35.415Z,9.39
2023-02-14T16:42:03.630Z,8.32
2023-02-14T16:44:31.076Z,7.83
2023-02-14T16:46:57.698Z,7.54
2023-02-14T16:49:24.721Z,7.25
2023-02-14T16:51:52.363Z,7.08
2023-02-14T16:54:21.505Z,6.91
2023-02-14T16:57:00.189Z,6.90
2023-02-14T16:59:26.870Z,6.70
2023-02-14T17:01:53.997Z,6.55
2023-02-14T17:04:21.229Z,6.35
2023-02-14T17:06:53.803Z,6.20
2023-02-14T17:09:25.656Z,6.33
2023-02-14T17:11:54.432Z,6.31
2023-02-14T17:14:25.692Z,6.27
2023-02-14T17:16:52.786Z,6.12
2023-02-14T17:19:19.505Z,6.08
2023-02-14T17:21:46.322Z,5.99
2023-02-14T17:24:12.834Z,5.89
2023-02-14T17:26:39.355Z,6.04
2023-02-14T17:29:06.969Z,6.08
2023-02-14T17:31:35.956Z,5.85
2023-02-14T17:36:41.498Z,5.81
2023-02-14T17:39:08.118Z,5.68
2023-02-14T17:41:34.701Z,5.63
2023-02-14T17:44:01.431Z,5.58
2023-02-14T17:46:29.345Z,5.64
2023-02-14T17:48:57.172Z,5.54
2023-02-14T17:51:24.809Z,5.36
2023-02-14T17:53:51.464Z,5.35
2023-02-14T17:56:23.738Z,5.29
2023-02-14T17:58:52.641Z,5.11
2023-02-14T18:01:21.837Z,5.12
2023-02-14T18:03:48.887Z,4.98
2023-02-14T18:08:51.887Z,4.91
2023-02-14T18:11:20.114Z,4.78
2023-02-14T18:16:19.375Z,4.72
2023-02-14T18:21:21.358Z,4.57
2023-02-14T18:23:48.170Z,4.58
2023-02-14T18:26:16.574Z,4.45
2023-02-14T18:28:43.096Z,4.35
2023-02-14T18:33:52.387Z,4.16
2023-02-14T18:36:24.306Z,4.01
2023-02-14T18:38:51.059Z,4.07
2023-02-14T18:41:19.466Z,3.99
2023-02-14T18:43:46.202Z,3.99
2023-02-14T18:46:18.187Z,3.77
2023-02-14T18:48:45.383Z,3.72
2023-02-14T18:51:23.818Z,3.59
2023-02-14T18:53:55.025Z,3.56
2023-02-14T18:56:25.661Z,3.43
2023-02-14T18:59:02.772Z,3.65
2023-02-14T19:01:32.251Z,3.48
2023-02-14T19:04:00.468Z,3.49
2023-02-14T19:06:29.986Z,3.47
2023-02-14T19:08:57.595Z,3.39
2023-02-14T19:11:27.408Z,3.41
2023-02-14T19:13:56.700Z,3.10
2023-02-14T19:16:26.236Z,3.06
2023-02-14T19:18:53.917Z,3.00
2023-02-14T19:21:23.185Z,3.02
2023-02-14T19:23:52.143Z,2.98
2023-02-14T19:26:21.265Z,3.00
2023-02-14T19:28:49.613Z,2.92
2023-02-14T19:31:16.716Z,2.97
2023-02-14T19:33:45.905Z,3.05
2023-02-14T19:36:14.825Z,2.99
2023-02-14T19:38:43.413Z,2.98
2023-02-14T19:41:24.802Z,2.93
2023-02-14T19:43:51.819Z,2.82
2023-02-14T19:46:20.601Z,2.62
2023-02-14T19:48:48.720Z,2.77
2023-02-14T19:51:21.734Z,2.67
2023-02-14T19:53:49.887Z,2.68
2023-02-14T19:56:21.550Z,2.49
2023-02-14T19:58:49.436Z,2.57
2023-02-14T20:01:25.943Z,2.73
2023-02-14T20:03:53.329Z,2.65
2023-02-14T20:06:23.767Z,2.68
2023-02-14T20:08:50.934Z,2.76
2023-02-14T20:11:29.172Z,2.71
2023-02-14T20:13:56.262Z,2.71
2023-02-14T20:16:25.686Z,2.60
2023-02-14T20:18:53.086Z,2.56
2023-02-14T20:21:28.118Z,2.62
2023-02-14T20:29:04.689Z,2.68
2023-02-14T20:31:33.263Z,2.62
2023-02-14T20:34:00.695Z,2.54
2023-02-14T20:36:27.349Z,2.56
2023-02-14T20:38:58.977Z,2.44
2023-02-14T20:41:26.425Z,2.33
2023-02-14T20:43:53.253Z,2.38
2023-02-14T20:46:20.142Z,2.47
2023-02-14T20:48:46.741Z,2.44
2023-02-14T20:51:19.225Z,2.40
2023-02-14T20:53:46.403Z,2.27
2023-02-14T20:56:14.680Z,2.24
2023-02-14T20:58:41.558Z,2.27
2023-02-14T21:01:11.052Z,2.39
2023-02-14T21:03:38.173Z,2.41
2023-02-14T21:06:06.761Z,2.38
2023-02-14T21:08:33.832Z,2.27
2023-02-14T21:11:00.861Z,2.56
2023-02-14T21:13:27.524Z,2.55
2023-02-14T21:15:54.151Z,2.48
2023-02-14T21:18:20.820Z,2.68
2023-02-14T21:20:47.377Z,2.73
2023-02-14T21:23:13.953Z,2.92
2023-02-14T21:25:40.516Z,2.74
2023-02-14T21:28:07.001Z,2.69
2023-02-14T21:30:33.579Z,2.67
2023-02-14T21:35:31.709Z,2.54
2023-02-14T21:37:58.217Z,2.26
2023-02-14T21:40:24.761Z,2.08
2023-02-14T21:42:51.322Z,2.03
2023-02-14T21:45:36.406Z,1.93
2023-02-14T21:48:21.705Z,2.02
2023-02-14T21:50:48.237Z,1.79
2023-02-14T21:53:14.764Z,1.93
2023-02-14T21:55:42.834Z,1.92
2023-02-14T21:58:09.403Z,1.70
2023-02-14T22:05:47.244Z,1.74
2023-02-14T22:08:13.787Z,1.84
2023-02-14T22:10:40.603Z,1.73
2023-02-14T22:13:07.270Z,1.96
2023-02-14T22:18:07.338Z,1.83
2023-02-14T22:20:33.846Z,1.68
2023-02-14T22:25:38.354Z,1.61
2023-02-14T22:30:36.196Z,1.67
2023-02-14T22:33:02.713Z,1.60
2023-02-14T22:35:29.370Z,1.70
2023-02-14T22:37:56.115Z,1.48
2023-02-14T22:40:22.702Z,1.59
2023-02-14T22:42:49.214Z,1.36
2023-02-14T22:47:53.480Z,1.66
2023-02-14T22:50:20.078Z,1.55
2023-02-14T22:52:46.689Z,1.50
2023-02-14T22:55:13.220Z,1.58
2023-02-14T22:57:39.774Z,1.94
2023-02-14T23:00:11.770Z,2.02
2023-02-14T23:02:39.046Z,2.10
2023-02-14T23:05:05.907Z,2.17
2023-02-14T23:07:32.536Z,2.29
2023-02-14T23:09:59.151Z,2.42
2023-02-14T23:12:44.214Z,2.45
2023-02-14T23:15:29.210Z,2.36
2023-02-14T23:18:14.856Z,2.46
2023-02-14T23:20:59.935Z,2.25
2023-02-14T23:23:31.465Z,2.19
2023-02-14T23:25:58.344Z,2.25
2023-02-14T23:28:25.848Z,2.27
2023-02-14T23:30:52.554Z,2.07
2023-02-14T23:33:19.199Z,1.80
2023-02-14T23:35:45.988Z,1.59
2023-02-14T23:38:12.518Z,1.40
2023-02-14T23:40:57.816Z,1.31
2023-02-14T23:43:27.461Z,1.46
2023-02-14T23:45:54.513Z,1.67
2023-02-14T23:48:21.103Z,1.66
2023-02-14T23:50:47.691Z,1.50
2023-02-14T23:53:15.421Z,1.74
2023-02-14T23:58:13.189Z,1.57
